OOL weather

Gold Coast Airport
Gold Coast, Queensland, Australia

Public forecast

Using degrees Celsius for public forecast. Weather courtesy of forecast.io.

Current aviation weather report (METAR) for Gold Coast Airport

Retrieved 2019/10/15 20:30 UTC (0 seconds ago):

YBCG 152030Z AUTO 33012KT 9999 // OVC017 21/18 Q1015 RF000/0000

Aviation forecast (TAF) for Gold Coast Airport

Retrieved 2019/10/15 17:00 UTC (3 hours ago):

TAF YBCG 151730Z 1517/1618 35012KT 9999 SCT015 FM160000 36015KT 9999 SCT025 FM160200 01022KT 9999 FEW035 FM161200 35018KT 9999 FEW025